sensor_id;sensor_type;location;lat;lon;timestamp;P1;durP1;ratioP1;P2;durP2;ratioP2
21213;SDS011;10764;50.850;2.904;2023-04-25T00:01:57;1.20;;;0.90;;
21213;SDS011;10764;50.850;2.904;2023-04-25T00:04:26;3.20;;;1.08;;
21213;SDS011;10764;50.850;2.904;2023-04-25T00:06:54;2.35;;;1.10;;
21213;SDS011;10764;50.850;2.904;2023-04-25T00:09:22;1.70;;;0.90;;
21213;SDS011;10764;50.850;2.904;2023-04-25T00:11:49;2.50;;;1.07;;
21213;SDS011;10764;50.850;2.904;2023-04-25T00:14:15;2.20;;;1.15;;
21213;SDS011;10764;50.850;2.904;2023-04-25T00:16:43;2.65;;;1.30;;
21213;SDS011;10764;50.850;2.904;2023-04-25T00:19:10;2.10;;;1.02;;
21213;SDS011;10764;50.850;2.904;2023-04-25T00:21:37;2.72;;;1.08;;
21213;SDS011;10764;50.850;2.904;2023-04-25T00:24:07;2.05;;;1.10;;
21213;SDS011;10764;50.850;2.904;2023-04-25T00:26:34;1.63;;;1.00;;
21213;SDS011;10764;50.850;2.904;2023-04-25T00:29:02;2.58;;;1.20;;
21213;SDS011;10764;50.850;2.904;2023-04-25T00:31:29;2.20;;;1.25;;
21213;SDS011;10764;50.850;2.904;2023-04-25T00:33:56;2.87;;;1.30;;
21213;SDS011;10764;50.850;2.904;2023-04-25T00:36:24;2.85;;;1.30;;
21213;SDS011;10764;50.850;2.904;2023-04-25T00:38:52;2.92;;;1.30;;
21213;SDS011;10764;50.850;2.904;2023-04-25T00:41:20;2.22;;;1.20;;
21213;SDS011;10764;50.850;2.904;2023-04-25T00:43:47;3.22;;;1.20;;
21213;SDS011;10764;50.850;2.904;2023-04-25T00:46:15;3.30;;;1.20;;
21213;SDS011;10764;50.850;2.904;2023-04-25T00:48:44;2.90;;;1.23;;
21213;SDS011;10764;50.850;2.904;2023-04-25T00:51:14;3.03;;;1.13;;
21213;SDS011;10764;50.850;2.904;2023-04-25T00:53:45;2.38;;;1.02;;
21213;SDS011;10764;50.850;2.904;2023-04-25T00:56:14;2.70;;;1.30;;
21213;SDS011;10764;50.850;2.904;2023-04-25T00:58:41;2.92;;;1.20;;
21213;SDS011;10764;50.850;2.904;2023-04-25T01:01:09;2.75;;;1.05;;
21213;SDS011;10764;50.850;2.904;2023-04-25T01:03:38;2.73;;;1.27;;
21213;SDS011;10764;50.850;2.904;2023-04-25T01:06:09;2.90;;;1.23;;
21213;SDS011;10764;50.850;2.904;2023-04-25T01:08:37;2.87;;;1.13;;
21213;SDS011;10764;50.850;2.904;2023-04-25T01:11:05;2.00;;;1.00;;
21213;SDS011;10764;50.850;2.904;2023-04-25T01:13:32;3.70;;;1.38;;
21213;SDS011;10764;50.850;2.904;2023-04-25T01:16:00;2.30;;;1.17;;
21213;SDS011;10764;50.850;2.904;2023-04-25T01:18:28;2.95;;;1.35;;
21213;SDS011;10764;50.850;2.904;2023-04-25T01:20:55;4.17;;;1.30;;
21213;SDS011;10764;50.850;2.904;2023-04-25T01:23:29;2.75;;;1.30;;
21213;SDS011;10764;50.850;2.904;2023-04-25T01:25:56;3.50;;;1.30;;
21213;SDS011;10764;50.850;2.904;2023-04-25T01:28:23;3.35;;;1.30;;
21213;SDS011;10764;50.850;2.904;2023-04-25T01:30:50;3.33;;;1.13;;
21213;SDS011;10764;50.850;2.904;2023-04-25T01:33:19;3.28;;;1.33;;
21213;SDS011;10764;50.850;2.904;2023-04-25T01:35:47;2.95;;;1.20;;
21213;SDS011;10764;50.850;2.904;2023-04-25T01:38:14;2.75;;;1.30;;
21213;SDS011;10764;50.850;2.904;2023-04-25T01:40:41;2.85;;;1.20;;
21213;SDS011;10764;50.850;2.904;2023-04-25T01:43:08;3.17;;;1.25;;
21213;SDS011;10764;50.850;2.904;2023-04-25T01:45:37;2.70;;;1.40;;
21213;SDS011;10764;50.850;2.904;2023-04-25T01:48:09;4.18;;;1.35;;
21213;SDS011;10764;50.850;2.904;2023-04-25T01:50:38;3.92;;;1.45;;
21213;SDS011;10764;50.850;2.904;2023-04-25T01:53:06;3.53;;;1.30;;
21213;SDS011;10764;50.850;2.904;2023-04-25T01:55:35;3.58;;;1.20;;
21213;SDS011;10764;50.850;2.904;2023-04-25T01:58:08;3.13;;;1.40;;
21213;SDS011;10764;50.850;2.904;2023-04-25T02:00:52;3.40;;;1.40;;
21213;SDS011;10764;50.850;2.904;2023-04-25T02:03:19;3.70;;;1.30;;
21213;SDS011;10764;50.850;2.904;2023-04-25T02:05:46;3.67;;;1.45;;
21213;SDS011;10764;50.850;2.904;2023-04-25T02:08:14;4.50;;;1.40;;
21213;SDS011;10764;50.850;2.904;2023-04-25T02:10:43;3.08;;;1.30;;
21213;SDS011;10764;50.850;2.904;2023-04-25T02:13:16;3.20;;;1.30;;
21213;SDS011;10764;50.850;2.904;2023-04-25T02:16:06;3.83;;;1.45;;
21213;SDS011;10764;50.850;2.904;2023-04-25T02:18:36;4.20;;;1.30;;
21213;SDS011;10764;50.850;2.904;2023-04-25T02:21:05;3.35;;;1.30;;
21213;SDS011;10764;50.850;2.904;2023-04-25T02:23:32;3.78;;;1.20;;
21213;SDS011;10764;50.850;2.904;2023-04-25T02:25:59;2.70;;;1.10;;
21213;SDS011;10764;50.850;2.904;2023-04-25T02:28:26;3.55;;;1.40;;
21213;SDS011;10764;50.850;2.904;2023-04-25T02:30:54;3.33;;;1.20;;
21213;SDS011;10764;50.850;2.904;2023-04-25T02:33:23;3.28;;;1.25;;
21213;SDS011;10764;50.850;2.904;2023-04-25T02:35:50;3.20;;;1.27;;
21213;SDS011;10764;50.850;2.904;2023-04-25T02:38:17;3.00;;;1.10;;
21213;SDS011;10764;50.850;2.904;2023-04-25T02:40:44;4.18;;;1.27;;
21213;SDS011;10764;50.850;2.904;2023-04-25T02:43:11;2.75;;;1.30;;
21213;SDS011;10764;50.850;2.904;2023-04-25T02:45:38;4.00;;;1.40;;
21213;SDS011;10764;50.850;2.904;2023-04-25T02:48:05;4.05;;;1.42;;
21213;SDS011;10764;50.850;2.904;2023-04-25T02:50:32;3.00;;;1.10;;
21213;SDS011;10764;50.850;2.904;2023-04-25T02:52:59;3.25;;;1.40;;
21213;SDS011;10764;50.850;2.904;2023-04-25T02:55:32;4.38;;;1.17;;
21213;SDS011;10764;50.850;2.904;2023-04-25T02:58:01;2.70;;;1.27;;
21213;SDS011;10764;50.850;2.904;2023-04-25T03:00:46;4.00;;;1.23;;
21213;SDS011;10764;50.850;2.904;2023-04-25T03:03:15;3.30;;;1.30;;
21213;SDS011;10764;50.850;2.904;2023-04-25T03:05:48;3.53;;;1.23;;
21213;SDS011;10764;50.850;2.904;2023-04-25T03:08:21;3.97;;;1.40;;
21213;SDS011;10764;50.850;2.904;2023-04-25T03:10:48;3.40;;;1.35;;
21213;SDS011;10764;50.850;2.904;2023-04-25T03:13:17;2.78;;;1.35;;
21213;SDS011;10764;50.850;2.904;2023-04-25T03:15:45;3.42;;;1.55;;
21213;SDS011;10764;50.850;2.904;2023-04-25T03:18:13;3.70;;;1.10;;
21213;SDS011;10764;50.850;2.904;2023-04-25T03:20:40;3.40;;;1.30;;
21213;SDS011;10764;50.850;2.904;2023-04-25T03:23:08;3.30;;;1.40;;
21213;SDS011;10764;50.850;2.904;2023-04-25T03:25:35;4.20;;;1.50;;
21213;SDS011;10764;50.850;2.904;2023-04-25T03:28:03;3.00;;;1.27;;
21213;SDS011;10764;50.850;2.904;2023-04-25T03:30:30;4.13;;;1.20;;
21213;SDS011;10764;50.850;2.904;2023-04-25T03:32:57;3.83;;;1.50;;
21213;SDS011;10764;50.850;2.904;2023-04-25T03:35:25;3.22;;;1.02;;
21213;SDS011;10764;50.850;2.904;2023-04-25T03:37:53;3.47;;;1.10;;
21213;SDS011;10764;50.850;2.904;2023-04-25T03:40:25;2.40;;;1.08;;
21213;SDS011;10764;50.850;2.904;2023-04-25T03:43:09;3.60;;;1.35;;
21213;SDS011;10764;50.850;2.904;2023-04-25T03:45:40;3.20;;;1.00;;
21213;SDS011;10764;50.850;2.904;2023-04-25T03:48:08;3.63;;;1.20;;
21213;SDS011;10764;50.850;2.904;2023-04-25T03:50:35;3.63;;;1.25;;
21213;SDS011;10764;50.850;2.904;2023-04-25T03:53:02;3.05;;;1.20;;
21213;SDS011;10764;50.850;2.904;2023-04-25T03:55:37;3.05;;;1.13;;
21213;SDS011;10764;50.850;2.904;2023-04-25T03:58:04;3.07;;;1.20;;
21213;SDS011;10764;50.850;2.904;2023-04-25T04:00:31;2.70;;;1.20;;
21213;SDS011;10764;50.850;2.904;2023-04-25T04:02:59;4.25;;;1.40;;
21213;SDS011;10764;50.850;2.904;2023-04-25T04:05:26;2.10;;;1.10;;
21213;SDS011;10764;50.850;2.904;2023-04-25T04:07:55;2.75;;;1.20;;
21213;SDS011;10764;50.850;2.904;2023-04-25T04:10:22;2.40;;;1.20;;
21213;SDS011;10764;50.850;2.904;2023-04-25T04:12:49;2.85;;;1.15;;
21213;SDS011;10764;50.850;2.904;2023-04-25T04:15:16;3.17;;;1.23;;
21213;SDS011;10764;50.850;2.904;2023-04-25T04:17:44;5.32;;;1.40;;
21213;SDS011;10764;50.850;2.904;2023-04-25T04:20:13;2.92;;;1.13;;
21213;SDS011;10764;50.850;2.904;2023-04-25T04:22:40;2.67;;;1.20;;
21213;SDS011;10764;50.850;2.904;2023-04-25T04:25:10;3.78;;;1.20;;
21213;SDS011;10764;50.850;2.904;2023-04-25T04:28:02;1.80;;;0.88;;
21213;SDS011;10764;50.850;2.904;2023-04-25T04:30:52;3.40;;;1.30;;
21213;SDS011;10764;50.850;2.904;2023-04-25T04:33:19;3.25;;;1.27;;
21213;SDS011;10764;50.850;2.904;2023-04-25T04:35:50;3.28;;;1.10;;
21213;SDS011;10764;50.850;2.904;2023-04-25T04:38:19;2.78;;;1.15;;
21213;SDS011;10764;50.850;2.904;2023-04-25T04:40:49;3.03;;;1.10;;
21213;SDS011;10764;50.850;2.904;2023-04-25T04:43:36;3.93;;;1.20;;
21213;SDS011;10764;50.850;2.904;2023-04-25T04:46:22;4.22;;;1.27;;
21213;SDS011;10764;50.850;2.904;2023-04-25T04:49:08;2.50;;;0.98;;
21213;SDS011;10764;50.850;2.904;2023-04-25T04:51:52;2.75;;;1.00;;
21213;SDS011;10764;50.850;2.904;2023-04-25T04:54:46;2.97;;;1.03;;
21213;SDS011;10764;50.850;2.904;2023-04-25T04:57:17;2.97;;;1.23;;
21213;SDS011;10764;50.850;2.904;2023-04-25T05:00:11;2.60;;;1.00;;
21213;SDS011;10764;50.850;2.904;2023-04-25T05:02:44;4.50;;;1.30;;
21213;SDS011;10764;50.850;2.904;2023-04-25T05:05:25;3.42;;;1.13;;
21213;SDS011;10764;50.850;2.904;2023-04-25T05:08:10;3.15;;;1.20;;
21213;SDS011;10764;50.850;2.904;2023-04-25T05:10:50;2.03;;;1.00;;
21213;SDS011;10764;50.850;2.904;2023-04-25T05:13:25;3.45;;;1.35;;
21213;SDS011;10764;50.850;2.904;2023-04-25T05:16:02;3.17;;;1.20;;
21213;SDS011;10764;50.850;2.904;2023-04-25T05:19:02;3.77;;;1.30;;
21213;SDS011;10764;50.850;2.904;2023-04-25T05:21:42;3.47;;;1.15;;
21213;SDS011;10764;50.850;2.904;2023-04-25T05:24:27;3.55;;;1.30;;
21213;SDS011;10764;50.850;2.904;2023-04-25T05:27:09;4.18;;;1.20;;
21213;SDS011;10764;50.850;2.904;2023-04-25T05:30:03;3.75;;;1.27;;
21213;SDS011;10764;50.850;2.904;2023-04-25T05:32:36;2.70;;;1.15;;
21213;SDS011;10764;50.850;2.904;2023-04-25T05:35:03;3.60;;;1.30;;
21213;SDS011;10764;50.850;2.904;2023-04-25T05:37:40;3.73;;;1.37;;
21213;SDS011;10764;50.850;2.904;2023-04-25T05:40:12;2.72;;;1.10;;
21213;SDS011;10764;50.850;2.904;2023-04-25T05:42:51;2.77;;;1.10;;
21213;SDS011;10764;50.850;2.904;2023-04-25T05:45:47;3.35;;;1.30;;
21213;SDS011;10764;50.850;2.904;2023-04-25T05:48:29;4.28;;;1.20;;
21213;SDS011;10764;50.850;2.904;2023-04-25T05:51:07;2.28;;;1.13;;
21213;SDS011;10764;50.850;2.904;2023-04-25T05:54:00;5.00;;;1.30;;
21213;SDS011;10764;50.850;2.904;2023-04-25T05:56:27;4.40;;;1.33;;
21213;SDS011;10764;50.850;2.904;2023-04-25T05:58:55;3.72;;;1.38;;
21213;SDS011;10764;50.850;2.904;2023-04-25T06:01:22;3.60;;;1.25;;
21213;SDS011;10764;50.850;2.904;2023-04-25T06:03:49;3.47;;;1.30;;
21213;SDS011;10764;50.850;2.904;2023-04-25T06:06:18;4.00;;;1.33;;
21213;SDS011;10764;50.850;2.904;2023-04-25T06:08:45;4.95;;;1.50;;
21213;SDS011;10764;50.850;2.904;2023-04-25T06:11:13;3.15;;;1.30;;
21213;SDS011;10764;50.850;2.904;2023-04-25T06:13:40;2.70;;;1.23;;
21213;SDS011;10764;50.850;2.904;2023-04-25T06:16:08;4.72;;;1.60;;
21213;SDS011;10764;50.850;2.904;2023-04-25T06:18:35;3.37;;;1.20;;
21213;SDS011;10764;50.850;2.904;2023-04-25T06:21:02;4.22;;;1.30;;
21213;SDS011;10764;50.850;2.904;2023-04-25T06:23:29;3.37;;;1.20;;
21213;SDS011;10764;50.850;2.904;2023-04-25T06:26:03;4.15;;;1.20;;
21213;SDS011;10764;50.850;2.904;2023-04-25T06:28:32;5.30;;;1.40;;
21213;SDS011;10764;50.850;2.904;2023-04-25T06:30:59;2.80;;;1.05;;
21213;SDS011;10764;50.850;2.904;2023-04-25T06:33:26;2.75;;;1.13;;
21213;SDS011;10764;50.850;2.904;2023-04-25T06:35:54;3.05;;;1.10;;
21213;SDS011;10764;50.850;2.904;2023-04-25T06:38:24;3.78;;;1.40;;
21213;SDS011;10764;50.850;2.904;2023-04-25T06:40:54;5.13;;;1.10;;
21213;SDS011;10764;50.850;2.904;2023-04-25T06:43:21;5.07;;;1.35;;
21213;SDS011;10764;50.850;2.904;2023-04-25T06:46:08;5.05;;;1.13;;
21213;SDS011;10764;50.850;2.904;2023-04-25T06:48:41;5.20;;;1.27;;
21213;SDS011;10764;50.850;2.904;2023-04-25T06:51:08;3.25;;;1.10;;
21213;SDS011;10764;50.850;2.904;2023-04-25T06:53:36;5.40;;;1.20;;
21213;SDS011;10764;50.850;2.904;2023-04-25T06:56:06;2.90;;;1.20;;
21213;SDS011;10764;50.850;2.904;2023-04-25T06:58:56;4.50;;;1.10;;
21213;SDS011;10764;50.850;2.904;2023-04-25T07:01:31;5.75;;;1.40;;
21213;SDS011;10764;50.850;2.904;2023-04-25T07:04:03;6.82;;;1.40;;
21213;SDS011;10764;50.850;2.904;2023-04-25T07:06:32;4.95;;;1.10;;
21213;SDS011;10764;50.850;2.904;2023-04-25T07:08:59;6.90;;;1.13;;
21213;SDS011;10764;50.850;2.904;2023-04-25T07:11:27;3.22;;;1.10;;
21213;SDS011;10764;50.850;2.904;2023-04-25T07:13:56;3.47;;;1.15;;
21213;SDS011;10764;50.850;2.904;2023-04-25T07:16:23;4.18;;;0.90;;
21213;SDS011;10764;50.850;2.904;2023-04-25T07:18:50;3.90;;;1.23;;
21213;SDS011;10764;50.850;2.904;2023-04-25T07:21:18;3.22;;;1.10;;
21213;SDS011;10764;50.850;2.904;2023-04-25T07:23:46;4.28;;;1.20;;
21213;SDS011;10764;50.850;2.904;2023-04-25T07:26:17;3.65;;;1.20;;
21213;SDS011;10764;50.850;2.904;2023-04-25T07:29:04;3.08;;;1.05;;
21213;SDS011;10764;50.850;2.904;2023-04-25T07:31:31;2.40;;;1.05;;
21213;SDS011;10764;50.850;2.904;2023-04-25T07:33:58;4.05;;;1.20;;
21213;SDS011;10764;50.850;2.904;2023-04-25T07:36:27;3.10;;;0.93;;
21213;SDS011;10764;50.850;2.904;2023-04-25T07:38:54;2.90;;;0.90;;
21213;SDS011;10764;50.850;2.904;2023-04-25T07:41:22;3.13;;;1.13;;
21213;SDS011;10764;50.850;2.904;2023-04-25T07:43:49;3.58;;;1.10;;
21213;SDS011;10764;50.850;2.904;2023-04-25T07:46:16;4.20;;;1.10;;
21213;SDS011;10764;50.850;2.904;2023-04-25T07:48:43;3.00;;;1.00;;
21213;SDS011;10764;50.850;2.904;2023-04-25T07:51:10;2.85;;;1.00;;
21213;SDS011;10764;50.850;2.904;2023-04-25T07:53:38;3.33;;;1.00;;
21213;SDS011;10764;50.850;2.904;2023-04-25T07:56:10;2.28;;;0.90;;
21213;SDS011;10764;50.850;2.904;2023-04-25T07:58:39;3.60;;;1.00;;
21213;SDS011;10764;50.850;2.904;2023-04-25T08:01:09;2.38;;;1.05;;
21213;SDS011;10764;50.850;2.904;2023-04-25T08:03:45;3.10;;;1.00;;
21213;SDS011;10764;50.850;2.904;2023-04-25T08:06:18;3.70;;;1.15;;
21213;SDS011;10764;50.850;2.904;2023-04-25T08:08:57;2.72;;;1.00;;
21213;SDS011;10764;50.850;2.904;2023-04-25T08:11:31;3.20;;;0.80;;
21213;SDS011;10764;50.850;2.904;2023-04-25T08:13:58;1.92;;;0.80;;
21213;SDS011;10764;50.850;2.904;2023-04-25T08:16:25;3.10;;;0.87;;
21213;SDS011;10764;50.850;2.904;2023-04-25T08:18:52;4.13;;;1.00;;
21213;SDS011;10764;50.850;2.904;2023-04-25T08:21:19;2.57;;;0.90;;
21213;SDS011;10764;50.850;2.904;2023-04-25T08:23:46;3.22;;;1.00;;
21213;SDS011;10764;50.850;2.904;2023-04-25T08:26:22;2.88;;;1.00;;
21213;SDS011;10764;50.850;2.904;2023-04-25T08:28:49;4.90;;;1.02;;
21213;SDS011;10764;50.850;2.904;2023-04-25T08:31:17;2.58;;;0.90;;
21213;SDS011;10764;50.850;2.904;2023-04-25T08:33:56;3.03;;;0.82;;
21213;SDS011;10764;50.850;2.904;2023-04-25T08:36:36;2.47;;;0.90;;
21213;SDS011;10764;50.850;2.904;2023-04-25T08:39:25;3.45;;;0.75;;
21213;SDS011;10764;50.850;2.904;2023-04-25T08:42:11;3.40;;;0.70;;
21213;SDS011;10764;50.850;2.904;2023-04-25T08:44:40;2.10;;;0.93;;
21213;SDS011;10764;50.850;2.904;2023-04-25T08:47:07;3.05;;;0.90;;
21213;SDS011;10764;50.850;2.904;2023-04-25T08:49:43;2.58;;;0.70;;
21213;SDS011;10764;50.850;2.904;2023-04-25T08:52:14;3.33;;;0.90;;
21213;SDS011;10764;50.850;2.904;2023-04-25T08:54:48;1.90;;;0.70;;
21213;SDS011;10764;50.850;2.904;2023-04-25T08:57:16;2.78;;;0.70;;
21213;SDS011;10764;50.850;2.904;2023-04-25T08:59:45;2.97;;;0.80;;
21213;SDS011;10764;50.850;2.904;2023-04-25T09:02:14;2.05;;;0.63;;
21213;SDS011;10764;50.850;2.904;2023-04-25T09:04:46;3.75;;;0.90;;
21213;SDS011;10764;50.850;2.904;2023-04-25T09:07:13;1.88;;;0.60;;
21213;SDS011;10764;50.850;2.904;2023-04-25T09:09:44;1.98;;;0.88;;
21213;SDS011;10764;50.850;2.904;2023-04-25T09:12:15;4.72;;;0.90;;
21213;SDS011;10764;50.850;2.904;2023-04-25T09:14:52;4.45;;;1.02;;
21213;SDS011;10764;50.850;2.904;2023-04-25T09:17:54;3.17;;;0.90;;
21213;SDS011;10764;50.850;2.904;2023-04-25T09:20:23;2.85;;;1.20;;
21213;SDS011;10764;50.850;2.904;2023-04-25T09:23:00;3.37;;;1.10;;
21213;SDS011;10764;50.850;2.904;2023-04-25T09:25:36;2.63;;;1.05;;
21213;SDS011;10764;50.850;2.904;2023-04-25T09:28:07;3.20;;;0.93;;
21213;SDS011;10764;50.850;2.904;2023-04-25T09:30:34;3.22;;;0.80;;
21213;SDS011;10764;50.850;2.904;2023-04-25T09:33:12;2.42;;;0.80;;
21213;SDS011;10764;50.850;2.904;2023-04-25T09:35:44;2.97;;;0.97;;
21213;SDS011;10764;50.850;2.904;2023-04-25T09:38:26;2.80;;;0.87;;
21213;SDS011;10764;50.850;2.904;2023-04-25T09:41:13;3.42;;;0.98;;
21213;SDS011;10764;50.850;2.904;2023-04-25T09:43:49;3.20;;;0.80;;
21213;SDS011;10764;50.850;2.904;2023-04-25T09:46:18;5.57;;;1.10;;
21213;SDS011;10764;50.850;2.904;2023-04-25T09:48:51;3.28;;;0.90;;
21213;SDS011;10764;50.850;2.904;2023-04-25T09:51:30;3.35;;;0.80;;
21213;SDS011;10764;50.850;2.904;2023-04-25T09:53:58;3.22;;;0.80;;
21213;SDS011;10764;50.850;2.904;2023-04-25T09:56:36;2.78;;;0.82;;
21213;SDS011;10764;50.850;2.904;2023-04-25T09:59:06;3.22;;;0.98;;
21213;SDS011;10764;50.850;2.904;2023-04-25T10:01:36;4.57;;;1.00;;
21213;SDS011;10764;50.850;2.904;2023-04-25T10:04:12;2.85;;;0.75;;
21213;SDS011;10764;50.850;2.904;2023-04-25T10:06:51;2.35;;;0.80;;
21213;SDS011;10764;50.850;2.904;2023-04-25T10:09:21;3.25;;;0.70;;
21213;SDS011;10764;50.850;2.904;2023-04-25T10:11:51;4.47;;;0.90;;
21213;SDS011;10764;50.850;2.904;2023-04-25T10:14:19;2.55;;;0.90;;
21213;SDS011;10764;50.850;2.904;2023-04-25T10:16:46;3.33;;;0.87;;
21213;SDS011;10764;50.850;2.904;2023-04-25T10:19:14;2.63;;;0.80;;
21213;SDS011;10764;50.850;2.904;2023-04-25T10:21:46;3.85;;;0.80;;
21213;SDS011;10764;50.850;2.904;2023-04-25T10:24:19;2.55;;;1.00;;
21213;SDS011;10764;50.850;2.904;2023-04-25T10:26:47;2.30;;;0.80;;
21213;SDS011;10764;50.850;2.904;2023-04-25T10:29:22;2.53;;;0.73;;
21213;SDS011;10764;50.850;2.904;2023-04-25T10:31:50;2.57;;;0.70;;
21213;SDS011;10764;50.850;2.904;2023-04-25T10:34:18;1.65;;;0.63;;
21213;SDS011;10764;50.850;2.904;2023-04-25T10:36:49;3.28;;;0.90;;
21213;SDS011;10764;50.850;2.904;2023-04-25T10:39:24;2.20;;;0.70;;
21213;SDS011;10764;50.850;2.904;2023-04-25T10:41:55;2.88;;;0.90;;
21213;SDS011;10764;50.850;2.904;2023-04-25T10:44:26;2.72;;;0.90;;
21213;SDS011;10764;50.850;2.904;2023-04-25T10:46:58;3.25;;;0.70;;
21213;SDS011;10764;50.850;2.904;2023-04-25T10:49:42;2.00;;;0.70;;
21213;SDS011;10764;50.850;2.904;2023-04-25T10:52:13;3.05;;;0.60;;
21213;SDS011;10764;50.850;2.904;2023-04-25T10:54:54;2.22;;;0.73;;
21213;SDS011;10764;50.850;2.904;2023-04-25T10:57:31;2.15;;;0.60;;
21213;SDS011;10764;50.850;2.904;2023-04-25T11:00:16;2.23;;;0.70;;
21213;SDS011;10764;50.850;2.904;2023-04-25T11:07:54;1.23;;;0.55;;
21213;SDS011;10764;50.850;2.904;2023-04-25T11:10:30;2.35;;;0.60;;
21213;SDS011;10764;50.850;2.904;2023-04-25T11:12:59;4.25;;;0.75;;
21213;SDS011;10764;50.850;2.904;2023-04-25T11:15:28;2.70;;;0.80;;
21213;SDS011;10764;50.850;2.904;2023-04-25T11:17:56;1.52;;;0.55;;
21213;SDS011;10764;50.850;2.904;2023-04-25T11:20:24;3.10;;;0.87;;
21213;SDS011;10764;50.850;2.904;2023-04-25T11:22:52;2.43;;;0.80;;
21213;SDS011;10764;50.850;2.904;2023-04-25T11:25:19;2.40;;;0.68;;
21213;SDS011;10764;50.850;2.904;2023-04-25T11:27:52;1.58;;;0.60;;
21213;SDS011;10764;50.850;2.904;2023-04-25T11:30:20;1.60;;;0.68;;
21213;SDS011;10764;50.850;2.904;2023-04-25T11:32:48;2.80;;;0.80;;
21213;SDS011;10764;50.850;2.904;2023-04-25T11:35:15;3.67;;;0.90;;
21213;SDS011;10764;50.850;2.904;2023-04-25T11:37:43;1.98;;;0.57;;
21213;SDS011;10764;50.850;2.904;2023-04-25T11:40:10;1.95;;;0.60;;
21213;SDS011;10764;50.850;2.904;2023-04-25T11:42:47;2.35;;;0.68;;
21213;SDS011;10764;50.850;2.904;2023-04-25T11:45:14;4.65;;;1.10;;
21213;SDS011;10764;50.850;2.904;2023-04-25T11:47:41;1.95;;;0.70;;
21213;SDS011;10764;50.850;2.904;2023-04-25T11:50:08;1.90;;;0.63;;
21213;SDS011;10764;50.850;2.904;2023-04-25T11:55:12;2.17;;;0.80;;
21213;SDS011;10764;50.850;2.904;2023-04-25T11:57:43;3.47;;;0.97;;
21213;SDS011;10764;50.850;2.904;2023-04-25T12:00:13;1.83;;;0.60;;
21213;SDS011;10764;50.850;2.904;2023-04-25T12:02:51;3.10;;;0.70;;
21213;SDS011;10764;50.850;2.904;2023-04-25T12:05:19;2.40;;;0.60;;
21213;SDS011;10764;50.850;2.904;2023-04-25T12:07:52;2.95;;;0.70;;
21213;SDS011;10764;50.850;2.904;2023-04-25T12:10:20;3.92;;;0.80;;
21213;SDS011;10764;50.850;2.904;2023-04-25T12:12:47;3.15;;;0.82;;
21213;SDS011;10764;50.850;2.904;2023-04-25T12:15:15;2.55;;;0.70;;
21213;SDS011;10764;50.850;2.904;2023-04-25T12:17:47;1.80;;;0.60;;
21213;SDS011;10764;50.850;2.904;2023-04-25T12:20:19;2.28;;;0.63;;
21213;SDS011;10764;50.850;2.904;2023-04-25T12:22:50;3.10;;;0.70;;
21213;SDS011;10764;50.850;2.904;2023-04-25T12:28:12;2.47;;;0.70;;
21213;SDS011;10764;50.850;2.904;2023-04-25T12:30:54;3.83;;;0.60;;
21213;SDS011;10764;50.850;2.904;2023-04-25T12:33:22;2.17;;;0.63;;
21213;SDS011;10764;50.850;2.904;2023-04-25T12:35:49;3.30;;;0.70;;
21213;SDS011;10764;50.850;2.904;2023-04-25T12:38:29;3.83;;;0.70;;
21213;SDS011;10764;50.850;2.904;2023-04-25T12:41:02;2.63;;;0.70;;
21213;SDS011;10764;50.850;2.904;2023-04-25T12:43:28;1.80;;;0.60;;
21213;SDS011;10764;50.850;2.904;2023-04-25T12:45:56;4.07;;;1.13;;
21213;SDS011;10764;50.850;2.904;2023-04-25T12:48:23;5.77;;;1.57;;
21213;SDS011;10764;50.850;2.904;2023-04-25T12:50:50;5.90;;;1.73;;
21213;SDS011;10764;50.850;2.904;2023-04-25T12:53:22;4.03;;;1.60;;
21213;SDS011;10764;50.850;2.904;2023-04-25T12:55:50;4.75;;;1.80;;
21213;SDS011;10764;50.850;2.904;2023-04-25T12:58:17;4.93;;;1.70;;
21213;SDS011;10764;50.850;2.904;2023-04-25T13:00:45;4.88;;;2.15;;
21213;SDS011;10764;50.850;2.904;2023-04-25T13:03:12;4.53;;;1.90;;
21213;SDS011;10764;50.850;2.904;2023-04-25T13:05:39;5.85;;;1.70;;
21213;SDS011;10764;50.850;2.904;2023-04-25T13:08:07;5.13;;;1.75;;
21213;SDS011;10764;50.850;2.904;2023-04-25T13:10:34;5.07;;;1.98;;
21213;SDS011;10764;50.850;2.904;2023-04-25T13:13:03;5.00;;;1.88;;
21213;SDS011;10764;50.850;2.904;2023-04-25T13:15:29;6.78;;;1.92;;
21213;SDS011;10764;50.850;2.904;2023-04-25T13:17:57;5.80;;;1.73;;
21213;SDS011;10764;50.850;2.904;2023-04-25T13:20:23;6.55;;;1.90;;
21213;SDS011;10764;50.850;2.904;2023-04-25T13:22:50;4.03;;;1.70;;
21213;SDS011;10764;50.850;2.904;2023-04-25T13:25:17;5.45;;;1.33;;
21213;SDS011;10764;50.850;2.904;2023-04-25T13:27:45;3.42;;;1.20;;
21213;SDS011;10764;50.850;2.904;2023-04-25T13:30:12;3.38;;;1.17;;
21213;SDS011;10764;50.850;2.904;2023-04-25T13:32:39;5.35;;;1.30;;
21213;SDS011;10764;50.850;2.904;2023-04-25T13:35:08;4.70;;;1.40;;
21213;SDS011;10764;50.850;2.904;2023-04-25T13:37:36;3.35;;;1.25;;
21213;SDS011;10764;50.850;2.904;2023-04-25T13:40:05;4.28;;;1.33;;
21213;SDS011;10764;50.850;2.904;2023-04-25T13:42:36;4.28;;;1.63;;
21213;SDS011;10764;50.850;2.904;2023-04-25T13:45:03;3.55;;;1.40;;
21213;SDS011;10764;50.850;2.904;2023-04-25T13:47:30;3.60;;;1.25;;
21213;SDS011;10764;50.850;2.904;2023-04-25T13:49:57;3.47;;;1.15;;
21213;SDS011;10764;50.850;2.904;2023-04-25T13:52:24;2.92;;;1.08;;
21213;SDS011;10764;50.850;2.904;2023-04-25T13:54:52;3.83;;;1.23;;
21213;SDS011;10764;50.850;2.904;2023-04-25T13:57:19;4.03;;;1.45;;
21213;SDS011;10764;50.850;2.904;2023-04-25T13:59:46;3.33;;;1.20;;
21213;SDS011;10764;50.850;2.904;2023-04-25T14:02:13;4.07;;;1.30;;
21213;SDS011;10764;50.850;2.904;2023-04-25T14:04:40;3.50;;;1.48;;
21213;SDS011;10764;50.850;2.904;2023-04-25T14:07:07;4.30;;;1.30;;
21213;SDS011;10764;50.850;2.904;2023-04-25T14:09:34;3.90;;;1.17;;
21213;SDS011;10764;50.850;2.904;2023-04-25T14:12:01;3.65;;;1.10;;
21213;SDS011;10764;50.850;2.904;2023-04-25T14:14:29;3.43;;;1.10;;
21213;SDS011;10764;50.850;2.904;2023-04-25T14:16:55;2.67;;;1.10;;
21213;SDS011;10764;50.850;2.904;2023-04-25T14:19:23;2.63;;;1.17;;
21213;SDS011;10764;50.850;2.904;2023-04-25T14:21:51;3.00;;;1.10;;
21213;SDS011;10764;50.850;2.904;2023-04-25T14:24:17;4.80;;;1.17;;
21213;SDS011;10764;50.850;2.904;2023-04-25T14:26:44;3.70;;;1.08;;
21213;SDS011;10764;50.850;2.904;2023-04-25T14:29:11;4.13;;;1.17;;
21213;SDS011;10764;50.850;2.904;2023-04-25T14:31:39;2.33;;;0.90;;
21213;SDS011;10764;50.850;2.904;2023-04-25T14:34:06;3.25;;;1.15;;
21213;SDS011;10764;50.850;2.904;2023-04-25T14:36:35;3.05;;;1.17;;
21213;SDS011;10764;50.850;2.904;2023-04-25T14:39:02;3.83;;;1.00;;
21213;SDS011;10764;50.850;2.904;2023-04-25T14:41:31;3.03;;;0.80;;
21213;SDS011;10764;50.850;2.904;2023-04-25T14:43:58;4.22;;;1.10;;
21213;SDS011;10764;50.850;2.904;2023-04-25T14:46:25;3.92;;;0.98;;
21213;SDS011;10764;50.850;2.904;2023-04-25T14:48:52;3.70;;;1.10;;
21213;SDS011;10764;50.850;2.904;2023-04-25T14:51:19;2.78;;;1.00;;
21213;SDS011;10764;50.850;2.904;2023-04-25T14:53:46;2.80;;;0.88;;
21213;SDS011;10764;50.850;2.904;2023-04-25T14:56:13;2.83;;;0.83;;
21213;SDS011;10764;50.850;2.904;2023-04-25T14:58:40;2.25;;;1.00;;
21213;SDS011;10764;50.850;2.904;2023-04-25T15:01:07;1.77;;;0.70;;
21213;SDS011;10764;50.850;2.904;2023-04-25T15:03:35;2.55;;;0.95;;
21213;SDS011;10764;50.850;2.904;2023-04-25T15:06:02;2.15;;;0.85;;
21213;SDS011;10764;50.850;2.904;2023-04-25T15:08:29;2.90;;;0.90;;
21213;SDS011;10764;50.850;2.904;2023-04-25T15:10:56;3.70;;;0.97;;
21213;SDS011;10764;50.850;2.904;2023-04-25T15:13:23;3.17;;;1.08;;
21213;SDS011;10764;50.850;2.904;2023-04-25T15:15:50;3.17;;;0.93;;
21213;SDS011;10764;50.850;2.904;2023-04-25T15:18:19;2.30;;;0.80;;
21213;SDS011;10764;50.850;2.904;2023-04-25T15:20:50;2.00;;;0.83;;